Time;durP1;ratioP1;P1;durP2;ratioP2;P2;SDS_P1;SDS_P2;PMS_P1;PMS_P2;Temp;Humidity;BMP_temperature;BMP_pressure;BME280_temperature;BME280_humidity;BME280_pressure;Samples;Min_cycle;Max_cycle;Signal;HPM_P1;HPM_P2
2021/12/25 00:00:34;;;;;;;82.80;44.13;;;384.80;1331.20;;;;;;5094644;28;20448;-68
2021/12/25 00:02:59;;;;;;;24.33;15.52;;;384.80;1331.20;;;;;;5094632;28;20287;-69
2021/12/25 00:05:25;;;;;;;23.23;14.20;;;384.90;1331.20;;;;;;5094624;28;20016;-69
2021/12/25 00:07:51;;;;;;;14.07;8.30;;;384.90;1331.20;;;;;;5094618;28;20097;-68
2021/12/25 00:10:17;;;;;;;12.10;7.40;;;409.70;1356.80;;;;;;5094306;28;20037;-69
2021/12/25 00:12:42;;;;;;;17.50;7.93;;;409.60;1356.80;;;;;;5094523;28;20461;-70
2021/12/25 00:15:08;;;;;;;23.00;14.30;;;409.60;1356.80;;;;;;5094465;28;20426;-68
2021/12/25 00:17:35;;;;;;;22.15;12.13;;;409.60;1382.40;;;;;;5094190;28;20099;-68
2021/12/25 00:20:01;;;;;;;17.30;9.98;;;384.90;1356.80;;;;;;5094483;28;20366;-68
2021/12/25 00:22:27;;;;;;;23.80;14.63;;;384.70;1356.80;;;;;;5094002;28;20081;-69
2021/12/25 00:24:53;;;;;;;27.98;16.45;;;;;;;;;;5094006;28;20113;-66
2021/12/25 00:34:47;;;;;;;6.78;3.50;;;;;;;;;;5094067;28;20059;-70
2021/12/25 00:37:13;;;;;;;23.83;17.15;;;409.60;1356.80;;;;;;5093851;28;20111;-69
2021/12/25 00:39:39;;;;;;;12.32;7.65;;;;;;;;;;5093847;28;20064;-69
2021/12/25 00:42:06;;;;;;;23.00;14.07;;;;;;;;;;5093704;28;20028;-70
2021/12/25 00:44:33;;;;;;;24.83;12.98;;;;;;;;;;5093835;28;20023;-69
2021/12/25 00:47:00;;;;;;;14.10;7.63;;;;;;;;;;5093884;28;20070;-68
2021/12/25 00:49:26;;;;;;;20.77;7.60;;;;;;;;;;5093627;28;20489;-70
2021/12/25 00:51:52;;;;;;;28.75;12.38;;;;;;;;;;5092976;28;20035;-61
2021/12/25 00:54:18;;;;;;;33.25;16.33;;;409.80;1356.80;;;;;;5075165;28;20024;-69
2021/12/25 00:56:44;;;;;;;11.02;6.35;;;409.80;1356.80;;;;;;5093036;28;20016;-68
2021/12/25 00:59:10;;;;;;;10.18;6.05;;;409.70;1356.80;;;;;;5093568;28;20070;-67
2021/12/25 01:01:36;;;;;;;8.10;5.65;;;409.70;1382.40;;;;;;5093103;28;20089;-69
2021/12/25 01:04:02;;;;;;;31.52;16.58;;;409.90;1356.80;;;;;;5093494;28;20028;-69
2021/12/25 01:06:28;;;;;;;13.90;9.30;;;409.80;1356.80;;;;;;5093362;28;20036;-70
2021/12/25 01:08:54;;;;;;;7.55;5.55;;;409.60;1382.40;;;;;;5093537;28;20488;-69
2021/12/25 01:11:20;;;;;;;9.52;6.20;;;409.60;1382.40;;;;;;5092946;28;20109;-69
2021/12/25 01:13:53;;;;;;;19.63;13.05;;;409.80;1382.40;;;;;;5093168;28;20172;-65
2021/12/25 01:29:27;;;;;;;18.80;10.98;;;409.90;1382.40;;;;;;5093295;28;20389;-67
2021/12/25 01:37:38;;;;;;;32.67;20.45;;;409.60;1484.80;;;;;;4997260;28;20064;-66
2021/12/25 01:40:41;;;;;;;18.58;10.63;;;409.70;1433.60;;;;;;5010361;28;20034;-68
2021/12/25 01:48:38;;;;;;;8.88;5.25;;;409.60;1459.20;;;;;;5011220;28;20037;-69
2021/12/25 01:51:04;;;;;;;34.75;23.10;;;409.80;1484.80;;;;;;5011131;28;20022;-68
2021/12/25 01:53:30;;;;;;;30.70;22.55;;;409.80;1561.60;;;;;;5010590;28;20629;-66
2021/12/25 01:55:59;;;;;;;39.58;27.38;;;409.70;1587.20;;;;;;5010814;28;20065;-65
2021/12/25 01:58:25;;;;;;;39.88;24.90;;;409.60;1612.80;;;;;;5010525;28;20042;-66
2021/12/25 02:00:54;;;;;;;32.72;20.15;;;384.90;1587.20;;;;;;5010851;28;20107;-67
2021/12/25 02:03:22;;;;;;;14.30;9.35;;;384.90;1612.80;;;;;;5010440;28;20524;-66
2021/12/25 02:05:49;;;;;;;15.00;9.73;;;384.70;1587.20;;;;;;5010619;28;20228;-61
2021/12/25 02:08:15;;;;;;;20.23;10.73;;;384.80;1587.20;;;;;;5010727;28;20053;-63
2021/12/25 02:10:41;;;;;;;13.30;8.23;;;384.70;1536.00;;;;;;5016270;28;20029;-66
2021/12/25 02:13:09;;;;;;;14.48;8.75;;;384.90;1510.40;;;;;;5092391;28;20016;-67
2021/12/25 02:15:35;;;;;;;47.35;28.45;;;384.80;1536.00;;;;;;5092512;28;20538;-67
2021/12/25 02:21:06;;;;;;;13.82;7.72;;;384.90;1561.60;;;;;;5092746;28;20028;-65
2021/12/25 02:23:25;;;;;;;12.63;6.82;;;384.80;1536.00;;;;;;5090249;28;20133;-65
2021/12/25 02:25:54;;;;;;;15.75;9.10;;;384.80;1484.80;;;;;;5092425;28;20052;-68
2021/12/25 02:28:21;;;;;;;12.13;7.43;;;;;;;;;;5092490;28;20027;-66
2021/12/25 02:30:48;;;;;;;13.32;7.20;;;;;;;;;;5092467;28;20031;-69
2021/12/25 02:33:16;;;;;;;15.32;9.23;;;;;;;;;;5093552;28;20037;-69
2021/12/25 02:35:42;;;;;;;28.83;15.02;;;384.80;1510.40;;;;;;5074749;28;20500;-65
2021/12/25 02:38:08;;;;;;;12.48;7.15;;;384.90;1484.80;;;;;;5092217;28;20036;-67
2021/12/25 02:40:34;;;;;;;7.25;4.95;;;384.80;1510.40;;;;;;5092459;28;20024;-68
2021/12/25 02:43:00;;;;;;;16.58;9.98;;;384.70;1510.40;;;;;;5092642;28;20039;-67
2021/12/25 02:45:26;;;;;;;10.05;7.38;;;384.70;1561.60;;;;;;5092231;28;20020;-68
2021/12/25 02:47:55;;;;;;;11.82;8.07;;;;;;;;;;5073859;28;20078;-68
2021/12/25 02:50:32;;;;;;;14.13;9.10;;;;;;;;;;5093606;28;20020;-67
2021/12/25 02:52:59;;;;;;;47.45;29.85;;;;;;;;;;5095883;28;20063;-66
2021/12/25 02:55:26;;;;;;;26.33;16.83;;;;;;;;;;5095968;28;20504;-68
2021/12/25 02:57:52;;;;;;;19.63;12.30;;;;;;;;;;5095819;28;20039;-68
2021/12/25 03:00:23;;;;;;;29.67;19.52;;;;;;;;;;5095800;28;20478;-69
2021/12/25 03:02:49;;;;;;;81.95;41.83;;;;;;;;;;5095683;28;20505;-69
2021/12/25 03:05:15;;;;;;;33.95;21.75;;;;;;;;;;5095618;28;20035;-67
2021/12/25 03:07:42;;;;;;;34.92;21.55;;;;;;;;;;5095296;28;20027;-69
2021/12/25 03:10:09;;;;;;;36.45;24.10;;;;;;;;;;5095780;28;20386;-68
2021/12/25 03:13:04;;;;;;;48.47;30.90;;;;;;;;;;5095688;28;20035;-66
2021/12/25 03:15:41;;;;;;;65.22;36.67;;;;;;;;;;5095556;28;20055;-67
2021/12/25 03:18:07;;;;;;;22.70;14.55;;;;;;;;;;5095515;28;20454;-59
2021/12/25 03:20:34;;;;;;;34.70;20.33;;;;;;;;;;5095466;28;20020;-67
2021/12/25 03:23:00;;;;;;;34.58;18.27;;;;;;;;;;5095110;28;20191;-68
2021/12/25 03:25:27;;;;;;;44.17;28.45;;;;;;;;;;5095272;28;20044;-64
2021/12/25 03:27:54;;;;;;;40.97;27.40;;;;;;;;;;5095421;28;20032;-69
2021/12/25 03:30:22;;;;;;;41.97;26.65;;;;;;;;;;5095242;28;20029;-69
2021/12/25 03:32:48;;;;;;;46.85;29.95;;;;;;;;;;5095233;28;20023;-67
2021/12/25 03:35:14;;;;;;;15.73;10.82;;;;;;;;;;5095366;28;20521;-64
2021/12/25 03:37:40;;;;;;;37.83;24.35;;;;;;;;;;5095045;28;20043;-67
2021/12/25 03:40:07;;;;;;;42.47;26.60;;;;;;;;;;5094955;28;20016;-68
2021/12/25 03:42:33;;;;;;;38.90;26.27;;;;;;;;;;5094879;28;20039;-68
2021/12/25 03:45:00;;;;;;;37.53;25.85;;;;;;;;;;5094951;28;20482;-59
2021/12/25 03:47:36;;;;;;;36.20;24.45;;;;;;;;;;5094813;28;20028;-68
2021/12/25 03:58:23;;;;;;;59.83;34.55;;;;;;;;;;5094818;28;20035;-68
2021/12/25 04:00:50;;;;;;;41.28;28.45;;;;;;;;;;5094800;28;20107;-68
2021/12/25 04:03:37;;;;;;;71.30;40.70;;;;;;;;;;5093501;28;20039;-69
2021/12/25 04:06:08;;;;;;;136.80;66.15;;;;;;;;;;5094428;28;20039;-67
2021/12/25 04:08:41;;;;;;;38.80;20.95;;;;;;;;;;5094377;28;20016;-69
2021/12/25 04:11:12;;;;;;;29.38;16.73;;;;;;;;;;5094424;28;20024;-69
2021/12/25 04:13:39;;;;;;;25.42;13.80;;;;;;;;;;5092970;28;20107;-68
2021/12/25 04:16:05;;;;;;;48.25;26.23;;;;;;;;;;5094261;28;20020;-69
2021/12/25 04:18:31;;;;;;;16.80;10.85;;;;;;;;;;5094319;28;20020;-69
2021/12/25 04:20:57;;;;;;;10.98;7.90;;;;;;;;;;5076399;28;20055;-69
2021/12/25 04:23:27;;;;;;;14.40;9.70;;;;;;;;;;5093746;28;20519;-69
2021/12/25 04:25:58;;;;;;;15.73;10.90;;;;;;;;;;5093962;28;20490;-69
2021/12/25 04:50:30;;;;;;;44.42;32.00;;;;;;;;;;5011896;28;20041;-69
2021/12/25 05:04:00;;;;;;;67.25;47.30;;;;;;;;;;4997920;28;20161;-66
2021/12/25 05:06:26;;;;;;;82.85;57.10;;;;;;;;;;5011589;28;20026;-67
2021/12/25 05:08:52;;;;;;;60.42;42.33;;;;;;;;;;5058385;28;20398;-66
2021/12/25 05:11:19;;;;;;;70.13;47.55;;;;;;;;;;5073226;28;20035;-66
2021/12/25 05:13:48;;;;;;;72.70;48.08;;;;;;;;;;5092286;28;20024;-68
2021/12/25 05:16:14;;;;;;;68.45;46.95;;;;;;;;;;5093474;28;20020;-69
2021/12/25 05:18:40;;;;;;;68.20;46.25;;;;;;;;;;5093430;28;20054;-69
2021/12/25 05:21:07;;;;;;;91.78;63.28;;;;;;;;;;5093293;28;20095;-70
2021/12/25 05:23:33;;;;;;;86.28;59.03;;;;;;;;;;5093053;28;20169;-70
2021/12/25 05:25:59;;;;;;;110.78;76.82;;;;;;;;;;5093275;28;20032;-69
2021/12/25 05:28:27;;;;;;;118.95;83.65;;;;;;;;;;5092996;28;20032;-69
2021/12/25 05:30:54;;;;;;;95.38;62.90;;;;;;;;;;5093069;28;20020;-66
2021/12/25 05:33:21;;;;;;;116.10;78.72;;;;;;;;;;5093071;28;20031;-67
2021/12/25 05:35:47;;;;;;;105.20;73.05;;;;;;;;;;5092832;28;20028;-68
2021/12/25 05:38:14;;;;;;;100.90;69.75;;;;;;;;;;5093109;28;20081;-68
2021/12/25 05:40:42;;;;;;;105.30;67.90;;;;;;;;;;5093059;28;20016;-68
2021/12/25 05:43:08;;;;;;;103.40;68.82;;;;;;;;;;5092661;28;20032;-62
2021/12/25 05:45:34;;;;;;;106.55;72.18;;;;;;;;;;5092945;28;20027;-68
2021/12/25 05:48:00;;;;;;;105.53;74.28;;;;;;;;;;5092958;28;20045;-68
2021/12/25 05:50:26;;;;;;;99.15;67.60;;;;;;;;;;5074592;28;20058;-67
2021/12/25 05:52:55;;;;;;;109.13;73.30;;;;;;;;;;5092799;28;20019;-67
2021/12/25 05:55:21;;;;;;;116.85;78.47;;;;;;;;;;5092707;28;20049;-67
2021/12/25 05:57:47;;;;;;;108.30;72.63;;;;;;;;;;5092738;28;20024;-66
2021/12/25 06:00:14;;;;;;;100.93;72.32;;;;;;;;;;5092801;28;20032;-70
2021/12/25 06:02:40;;;;;;;114.10;78.97;;;;;;;;;;5092582;28;20119;-70
2021/12/25 06:05:06;;;;;;;120.75;81.10;;;;;;;;;;5093209;28;20469;-70
2021/12/25 06:07:33;;;;;;;115.72;81.47;;;333.70;2329.60;;;;;;5092620;28;20032;-67
2021/12/25 06:09:59;;;;;;;116.43;84.28;;;333.60;2329.60;;;;;;5092720;28;20028;-67
2021/12/25 06:12:26;;;;;;;122.20;84.05;;;333.70;2329.60;;;;;;5092370;28;20478;-66
2021/12/25 06:14:53;;;;;;;133.95;98.18;;;333.70;2329.60;;;;;;5092493;28;20028;-67
2021/12/25 06:17:19;;;;;;;148.77;109.00;;;358.40;2329.60;;;;;;5092520;28;20024;-65
2021/12/25 06:19:45;;;;;;;141.90;106.82;;;358.40;2329.60;;;;;;5092547;28;20023;-67
2021/12/25 06:22:11;;;;;;;150.00;110.75;;;333.60;2329.60;;;;;;5092412;28;20085;-67
2021/12/25 06:24:40;;;;;;;150.98;112.20;;;333.70;2329.60;;;;;;5092612;28;20041;-63
2021/12/25 06:27:06;;;;;;;186.27;123.72;;;358.40;2329.60;;;;;;5096385;28;20081;-67
2021/12/25 06:29:31;;;;;;;192.88;124.97;;;358.40;2329.60;;;;;;5096272;28;20027;-65
2021/12/25 06:31:58;;;;;;;201.48;124.18;;;358.40;2329.60;;;;;;5096272;28;20020;-61
2021/12/25 06:34:24;;;;;;;216.35;129.38;;;358.40;2329.60;;;;;;5096381;28;20024;-64
2021/12/25 06:36:50;;;;;;;205.30;130.40;;;333.70;2329.60;;;;;;5096289;28;20027;-67
2021/12/25 06:39:16;;;;;;;210.32;135.07;;;358.40;2329.60;;;;;;5096212;28;20051;-65
2021/12/25 06:41:44;;;;;;;168.23;107.22;;;333.70;2329.60;;;;;;5096316;28;20498;-66
2021/12/25 06:44:10;;;;;;;152.07;107.70;;;;;;;;;;5095820;28;20031;-68
2021/12/25 06:46:37;;;;;;;148.95;105.03;;;;;;;;;;5095967;28;20054;-68
2021/12/25 06:49:03;;;;;;;166.15;114.43;;;333.70;2329.60;;;;;;5095903;28;20024;-66
2021/12/25 06:51:29;;;;;;;160.10;109.60;;;358.40;2329.60;;;;;;5095852;28;20071;-63
2021/12/25 06:53:55;;;;;;;180.85;124.22;;;358.40;2329.60;;;;;;5095884;28;20024;-66
2021/12/25 06:56:21;;;;;;;314.13;197.35;;;333.70;2329.60;;;;;;5095877;28;20032;-68
2021/12/25 06:58:47;;;;;;;177.18;125.20;;;;;;;;;;5095435;28;20049;-68
2021/12/25 07:01:14;;;;;;;178.57;130.95;;;;;;;;;;5095793;28;20489;-69
2021/12/25 07:03:40;;;;;;;173.45;125.85;;;;;;;;;;5095390;28;20070;-68
2021/12/25 07:06:05;;;;;;;182.43;129.73;;;333.60;2329.60;;;;;;5095667;28;20024;-68
2021/12/25 07:08:31;;;;;;;184.77;132.98;;;333.70;2329.60;;;;;;5095548;28;20388;-69
2021/12/25 07:10:57;;;;;;;185.45;129.70;;;;;;;;;;5095603;28;20026;-69
2021/12/25 07:13:23;;;;;;;208.52;143.60;;;;;;;;;;5095454;28;20027;-68
2021/12/25 07:15:49;;;;;;;190.10;136.82;;;;;;;;;;5095271;28;20032;-68
2021/12/25 07:18:15;;;;;;;203.43;138.48;;;;;;;;;;5095387;28;20103;-69
2021/12/25 07:20:42;;;;;;;135.23;95.68;;;;;;;;;;5095284;28;20031;-69
2021/12/25 07:23:09;;;;;;;140.48;107.15;;;;;;;;;;5095128;28;20035;-68
2021/12/25 07:25:35;;;;;;;157.80;112.78;;;;;;;;;;5095049;28;20044;-66
2021/12/25 07:28:01;;;;;;;118.13;85.47;;;;;;;;;;5095015;28;20032;-67
2021/12/25 07:30:27;;;;;;;88.95;60.30;;;;;;;;;;5076610;28;20117;-67
2021/12/25 07:32:53;;;;;;;154.90;111.75;;;;;;;;;;5095128;28;20039;-67
2021/12/25 07:35:19;;;;;;;141.43;96.97;;;;;;;;;;5095039;28;20079;-66
2021/12/25 07:37:45;;;;;;;59.53;40.92;;;;;;;;;;5093990;28;20032;-66
2021/12/25 07:40:12;;;;;;;42.53;29.98;;;359.00;2329.60;;;;;;5094959;28;20043;-69
2021/12/25 07:42:37;;;;;;;57.55;35.38;;;359.10;2252.80;;;;;;5094870;28;20111;-66
2021/12/25 07:45:06;;;;;;;51.60;30.92;;;359.30;2201.60;;;;;;5094519;28;20509;-66
2021/12/25 07:47:34;;;;;;;51.83;32.75;;;384.00;2201.60;;;;;;5094671;28;20028;-67
2021/12/25 07:50:01;;;;;;;63.75;39.17;;;384.10;2150.40;;;;;;5094625;28;20029;-66
2021/12/25 07:52:28;;;;;;;45.13;27.58;;;384.20;2150.40;;;;;;5094701;28;20031;-68
2021/12/25 07:54:54;;;;;;;50.38;30.80;;;384.30;2099.20;;;;;;5094847;28;20106;-67
2021/12/25 07:57:20;;;;;;;38.67;25.85;;;384.40;2048.00;;;;;;5094574;28;20012;-68
2021/12/25 07:59:46;;;;;;;21.40;16.30;;;384.50;2022.40;;;;;;5094355;28;20024;-68
2021/12/25 08:02:12;;;;;;;46.85;35.03;;;;;;;;;;5094384;28;20176;-68
2021/12/25 08:04:38;;;;;;;120.78;85.43;;;;;;;;;;5094241;28;20085;-67
2021/12/25 08:07:04;;;;;;;156.88;114.60;;;;;;;;;;5093997;28;20032;-70
2021/12/25 08:09:31;;;;;;;140.35;101.45;;;;;;;;;;5094234;28;20024;-69
2021/12/25 08:11:59;;;;;;;176.77;110.93;;;;;;;;;;5094273;28;20257;-69
2021/12/25 08:14:25;;;;;;;34.72;24.55;;;;;;;;;;5094029;28;20393;-70
2021/12/25 08:17:01;;;;;;;22.67;14.93;;;;;;;;;;5094311;28;20424;-69
2021/12/25 08:19:27;;;;;;;22.35;14.20;;;;;;;;;;5094343;28;20095;-67
2021/12/25 08:21:55;;;;;;;26.73;17.83;;;409.70;1894.40;;;;;;5094013;28;20029;-65
2021/12/25 08:24:21;;;;;;;39.50;27.05;;;409.70;1894.40;;;;;;5093733;28;20040;-69
2021/12/25 08:26:48;;;;;;;17.63;12.52;;;409.70;1868.80;;;;;;5093715;28;20111;-66
2021/12/25 08:29:14;;;;;;;21.73;13.23;;;409.70;1817.60;;;;;;5094044;28;20027;-66
2021/12/25 08:31:41;;;;;;;16.88;10.80;;;409.70;1817.60;;;;;;5093788;28;20111;-70
2021/12/25 08:34:07;;;;;;;24.63;16.30;;;409.80;1792.00;;;;;;5093706;28;20470;-70
2021/12/25 08:36:33;;;;;;;10.82;8.23;;;;;;;;;;5093587;28;20367;-71
2021/12/25 08:38:59;;;;;;;26.58;17.13;;;410.00;1792.00;;;;;;5093760;28;20043;-72
2021/12/25 08:41:30;;;;;;;20.33;14.00;;;;;;;;;;5093621;28;20394;-71
2021/12/25 08:44:00;;;;;;;18.42;13.18;;;;;;;;;;5093725;28;20035;-70
2021/12/25 08:46:55;;;;;;;38.58;22.70;;;;;;;;;;5093481;28;20016;-71
2021/12/25 08:49:24;;;;;;;30.90;21.08;;;;;;;;;;5093422;28;20103;-70
2021/12/25 08:51:51;;;;;;;35.60;24.85;;;;;;;;;;5093511;28;20107;-69
2021/12/25 08:54:17;;;;;;;25.98;18.35;;;410.30;1689.60;;;;;;5093279;28;20382;-67
2021/12/25 08:56:51;;;;;;;25.52;18.45;;;410.10;1664.00;;;;;;5092898;28;20028;-67
2021/12/25 08:59:17;;;;;;;30.88;22.98;;;410.40;1689.60;;;;;;5093337;28;20016;-68
2021/12/25 09:01:43;;;;;;;27.52;18.05;;;410.50;1689.60;;;;;;5092513;28;20566;-67
2021/12/25 09:04:12;;;;;;;30.17;21.85;;;410.50;1664.00;;;;;;5092602;28;20386;-70
2021/12/25 09:06:39;;;;;;;26.10;17.35;;;410.50;1664.00;;;;;;5092656;28;20057;-70
2021/12/25 09:09:08;;;;;;;40.33;24.58;;;410.50;1638.40;;;;;;5092764;28;20016;-70
2021/12/25 09:11:37;;;;;;;26.92;17.27;;;410.50;1638.40;;;;;;5092578;28;20028;-70
2021/12/25 09:14:09;;;;;;;68.15;40.08;;;435.30;1612.80;;;;;;5092781;28;20402;-69
2021/12/25 09:16:35;;;;;;;54.72;36.10;;;435.30;1612.80;;;;;;5091359;28;20382;-69
2021/12/25 09:19:01;;;;;;;70.75;51.75;;;435.40;1612.80;;;;;;5093013;28;20024;-66
2021/12/25 09:21:35;;;;;;;109.28;80.03;;;435.30;1766.40;;;;;;5092625;28;20035;-67
2021/12/25 09:24:01;;;;;;;58.78;42.40;;;435.30;1817.60;;;;;;5092875;28;20103;-69
2021/12/25 09:26:27;;;;;;;57.63;45.20;;;435.30;1715.20;;;;;;5092825;28;20028;-63
2021/12/25 09:28:53;;;;;;;53.28;41.00;;;435.30;1766.40;;;;;;5093018;28;20096;-66
2021/12/25 09:31:18;;;;;;;82.20;58.75;;;435.30;1792.00;;;;;;5092572;28;20047;-67
2021/12/25 09:33:44;;;;;;;102.50;75.25;;;435.20;1817.60;;;;;;5092739;28;20028;-65
2021/12/25 09:36:10;;;;;;;94.57;71.28;;;435.30;1843.20;;;;;;5092606;28;20032;-66
2021/12/25 09:38:37;;;;;;;64.57;47.22;;;435.20;1868.80;;;;;;5092343;28;20032;-63
2021/12/25 09:41:04;;;;;;;58.03;44.67;;;435.20;1817.60;;;;;;5072085;28;20108;-64
2021/12/25 09:43:32;;;;;;;53.88;38.33;;;435.20;1843.20;;;;;;5087640;28;20119;-64
2021/12/25 09:45:58;;;;;;;48.10;35.67;;;435.20;1817.60;;;;;;5086530;28;20024;-68
2021/12/25 09:48:23;;;;;;;40.60;31.77;;;435.30;1766.40;;;;;;5072219;28;20056;-69
2021/12/25 09:50:50;;;;;;;54.35;39.33;;;435.30;1766.40;;;;;;5083350;28;20062;-70
2021/12/25 09:53:19;;;;;;;75.07;49.17;;;435.30;1766.40;;;;;;5092400;28;20550;-70
2021/12/25 09:55:45;;;;;;;30.15;21.00;;;435.30;1715.20;;;;;;5092534;28;20028;-69
2021/12/25 09:58:11;;;;;;;58.10;40.45;;;435.30;1638.40;;;;;;5092383;28;20061;-68
2021/12/25 10:00:41;;;;;;;53.58;39.38;;;435.30;1715.20;;;;;;5096700;28;20027;-65
2021/12/25 10:03:07;;;;;;;50.55;36.30;;;435.40;1766.40;;;;;;5099119;28;20087;-67
2021/12/25 10:05:37;;;;;;;57.70;43.88;;;435.30;1766.40;;;;;;5098664;28;20620;-67
2021/12/25 10:08:11;;;;;;;50.10;35.50;;;435.30;1715.20;;;;;;5098995;28;20530;-67
2021/12/25 10:10:41;;;;;;;22.52;15.25;;;410.50;1715.20;;;;;;5099013;28;20024;-66
2021/12/25 10:13:23;;;;;;;21.10;12.77;;;410.50;1612.80;;;;;;5099035;28;20024;-63
2021/12/25 10:15:54;;;;;;;22.10;14.45;;;410.50;1612.80;;;;;;5099095;28;20386;-69
2021/12/25 10:18:34;;;;;;;15.15;9.95;;;410.50;1612.80;;;;;;5098988;28;20031;-69
2021/12/25 10:21:17;;;;;;;8.82;5.95;;;410.50;1587.20;;;;;;5099053;28;20051;-67
2021/12/25 10:24:01;;;;;;;9.85;7.00;;;;;;;;;;5098766;28;20032;-66
2021/12/25 10:26:27;;;;;;;12.65;7.40;;;435.20;1587.20;;;;;;5097373;28;20367;-67
2021/12/25 10:28:53;;;;;;;12.25;7.45;;;435.30;1587.20;;;;;;5098828;28;20148;-67
2021/12/25 10:31:33;;;;;;;13.68;10.63;;;435.20;1561.60;;;;;;5098908;28;20020;-67
2021/12/25 10:33:59;;;;;;;11.90;9.25;;;435.30;1561.60;;;;;;5098721;28;20043;-68
2021/12/25 10:36:36;;;;;;;27.77;18.73;;;;;;;;;;5080541;28;20032;-68
2021/12/25 10:39:13;;;;;;;13.55;8.65;;;435.70;1536.00;;;;;;5098799;28;20228;-68
2021/12/25 10:41:51;;;;;;;13.88;11.10;;;435.60;1536.00;;;;;;5098638;28;20024;-67
2021/12/25 10:44:26;;;;;;;60.22;28.45;;;;;;;;;;5099097;28;20024;-68
2021/12/25 10:47:04;;;;;;;14.45;10.25;;;;;;;;;;5098690;28;20028;-67
2021/12/25 10:49:38;;;;;;;17.40;12.90;;;;;;;;;;5098942;28;20016;-69
2021/12/25 10:52:10;;;;;;;19.90;12.82;;;;;;;;;;5099002;28;20367;-69
2021/12/25 10:54:41;;;;;;;26.63;19.52;;;;;;;;;;5080667;28;20027;-67
2021/12/25 10:57:08;;;;;;;29.83;21.70;;;;;;;;;;5097443;28;20028;-68
2021/12/25 10:59:47;;;;;;;34.40;24.38;;;;;;;;;;5098837;28;20024;-68
2021/12/25 11:02:37;;;;;;;126.65;74.47;;;461.10;1536.00;;;;;;5098632;28;20564;-66
2021/12/25 11:05:26;;;;;;;109.78;64.70;;;461.10;1510.40;;;;;;5098770;28;20055;-66
2021/12/25 11:08:22;;;;;;;60.53;40.53;;;461.10;1587.20;;;;;;5098766;28;20024;-68
2021/12/25 11:11:04;;;;;;;71.32;44.80;;;461.10;1510.40;;;;;;5035190;28;20503;-68
2021/12/25 11:13:39;;;;;;;46.30;32.15;;;461.10;1561.60;;;;;;5033330;28;20468;-69
2021/12/25 11:16:16;;;;;;;14.00;9.10;;;;;;;;;;5032840;28;20041;-68
2021/12/25 11:19:13;;;;;;;37.83;24.05;;;;;;;;;;5033225;28;20471;-67
2021/12/25 11:21:46;;;;;;;90.65;55.58;;;;;;;;;;5032570;28;20041;-67
2021/12/25 11:24:13;;;;;;;43.90;29.33;;;;;;;;;;5032852;28;20049;-67
2021/12/25 11:26:40;;;;;;;35.78;25.90;;;;;;;;;;5033211;28;20079;-64
2021/12/25 11:29:07;;;;;;;37.17;24.25;;;;;;;;;;5033031;28;20069;-66
2021/12/25 11:31:33;;;;;;;35.80;22.65;;;;;;;;;;5032081;28;20026;-65
2021/12/25 11:33:59;;;;;;;68.55;43.08;;;;;;;;;;5031931;28;20046;-67
2021/12/25 11:36:25;;;;;;;34.53;25.55;;;;;;;;;;5031963;28;20032;-68
2021/12/25 11:38:52;;;;;;;28.35;19.60;;;;;;;;;;5032488;28;20040;-68
2021/12/25 11:41:19;;;;;;;25.75;18.27;;;;;;;;;;5032208;28;20522;-70
2021/12/25 11:43:46;;;;;;;28.38;19.17;;;;;;;;;;5032593;28;20041;-66
2021/12/25 11:46:14;;;;;;;35.67;22.10;;;;;;;;;;5036919;28;20025;-69
2021/12/25 11:48:41;;;;;;;22.92;16.40;;;;;;;;;;5074587;28;20150;-69
2021/12/25 11:51:07;;;;;;;26.23;17.30;;;;;;;;;;5074644;28;20017;-69
2021/12/25 11:54:03;;;;;;;23.48;17.75;;;;;;;;;;5074429;28;20081;-68
2021/12/25 11:56:44;;;;;;;30.48;22.45;;;;;;;;;;5074416;28;20032;-67
2021/12/25 11:59:11;;;;;;;35.25;24.30;;;;;;;;;;5074360;28;20551;-65
2021/12/25 12:01:40;;;;;;;31.25;21.65;;;;;;;;;;5074325;28;20107;-66
2021/12/25 12:04:14;;;;;;;67.03;41.47;;;;;;;;;;5074276;28;20159;-69
2021/12/25 12:06:47;;;;;;;28.17;20.60;;;;;;;;;;5074218;28;20112;-68
2021/12/25 12:09:32;;;;;;;28.10;19.55;;;;;;;;;;5074084;28;20032;-68
2021/12/25 12:12:10;;;;;;;22.55;15.27;;;;;;;;;;5074360;28;20028;-68
2021/12/25 12:14:36;;;;;;;34.28;23.15;;;;;;;;;;5074200;28;20103;-66
2021/12/25 12:17:22;;;;;;;29.98;19.27;;;;;;;;;;5074236;28;20081;-69
2021/12/25 12:19:51;;;;;;;45.65;30.33;;;;;;;;;;5073517;28;20029;-68
2021/12/25 12:22:41;;;;;;;17.80;13.57;;;;;;;;;;5073828;28;20386;-69
2021/12/25 12:25:19;;;;;;;20.67;14.85;;;;;;;;;;5073751;28;20487;-69
2021/12/25 12:28:01;;;;;;;39.65;26.17;;;;;;;;;;5073895;28;20089;-70
2021/12/25 12:30:50;;;;;;;35.15;21.55;;;;;;;;;;5073823;28;20027;-68
2021/12/25 12:33:17;;;;;;;37.17;22.65;;;;;;;;;;5073653;28;20028;-67
2021/12/25 12:35:44;;;;;;;38.05;25.52;;;;;;;;;;5073861;28;20082;-68
2021/12/25 12:38:27;;;;;;;30.35;20.42;;;;;;;;;;5073612;28;20020;-68
2021/12/25 12:41:12;;;;;;;59.42;39.28;;;;;;;;;;5073655;28;20029;-69
2021/12/25 12:44:07;;;;;;;38.00;25.30;;;;;;;;;;5073498;28;20043;-68
2021/12/25 12:46:48;;;;;;;20.40;14.07;;;;;;;;;;5060027;28;20098;-69
2021/12/25 12:49:18;;;;;;;27.67;15.18;;;;;;;;;;5073615;28;20031;-69
2021/12/25 12:51:45;;;;;;;18.80;12.95;;;;;;;;;;5073354;28;20021;-68
2021/12/25 12:54:11;;;;;;;21.88;12.13;;;;;;;;;;5073756;28;20021;-68
2021/12/25 12:56:57;;;;;;;10.70;7.53;;;;;;;;;;5073682;28;20078;-69
2021/12/25 12:59:23;;;;;;;49.00;28.15;;;;;;;;;;5055112;28;20025;-69
2021/12/25 13:01:49;;;;;;;27.30;16.95;;;;;;;;;;5073069;28;20089;-67
2021/12/25 13:04:18;;;;;;;25.20;14.52;;;;;;;;;;5073159;28;20475;-69
2021/12/25 13:06:44;;;;;;;20.75;13.35;;;;;;;;;;5073175;28;20040;-68
2021/12/25 13:09:12;;;;;;;21.30;14.55;;;461.40;1356.80;;;;;;5073191;28;20489;-68
2021/12/25 13:11:53;;;;;;;28.08;17.98;;;;;;;;;;5054870;28;20119;-69
2021/12/25 13:14:19;;;;;;;19.25;11.23;;;;;;;;;;5073272;28;20231;-68
2021/12/25 13:16:45;;;;;;;15.07;8.15;;;;;;;;;;5073457;28;20059;-68
2021/12/25 13:19:12;;;;;;;50.70;29.50;;;;;;;;;;5072985;28;20035;-69
2021/12/25 13:21:38;;;;;;;18.13;12.40;;;;;;;;;;5072913;28;20479;-68
2021/12/25 13:24:12;;;;;;;14.30;9.18;;;;;;;;;;5072661;28;20044;-66
2021/12/25 13:26:42;;;;;;;25.88;16.42;;;;;;;;;;5072937;28;20043;-68
2021/12/25 13:29:12;;;;;;;15.68;12.00;;;;;;;;;;5054887;28;20383;-69
2021/12/25 13:31:40;;;;;;;18.92;12.13;;;;;;;;;;5072934;28;20039;-68
2021/12/25 13:34:13;;;;;;;24.55;15.95;;;;;;;;;;5072414;28;20099;-67
2021/12/25 13:36:40;;;;;;;21.77;12.57;;;;;;;;;;5054248;28;20078;-67
2021/12/25 13:39:08;;;;;;;31.40;18.90;;;;;;;;;;5072827;28;20025;-68
2021/12/25 13:41:45;;;;;;;22.42;15.25;;;;;;;;;;5072698;28;20108;-67
2021/12/25 13:44:13;;;;;;;46.72;26.40;;;;;;;;;;5072512;28;20021;-68
2021/12/25 13:46:44;;;;;;;20.02;12.05;;;;;;;;;;5072663;28;20024;-67
2021/12/25 13:49:26;;;;;;;20.77;10.65;;;;;;;;;;5072540;28;20497;-68
2021/12/25 13:51:52;;;;;;;30.70;16.50;;;;;;;;;;5072434;28;20024;-67
2021/12/25 13:54:19;;;;;;;54.72;24.75;;;;;;;;;;5072714;28;20102;-66
2021/12/25 13:56:49;;;;;;;52.08;25.52;;;;;;;;;;5082796;28;20032;-69
2021/12/25 13:59:16;;;;;;;45.53;22.30;;;;;;;;;;5091041;28;20445;-68
2021/12/25 14:01:42;;;;;;;24.58;16.73;;;;;;;;;;5092580;28;20024;-69
2021/12/25 14:04:09;;;;;;;55.17;26.60;;;;;;;;;;5092541;28;20456;-68
2021/12/25 14:06:36;;;;;;;28.95;17.88;;;;;;;;;;5092754;28;20020;-69
2021/12/25 14:09:04;;;;;;;56.30;28.98;;;;;;;;;;5092682;28;20024;-69
2021/12/25 14:11:30;;;;;;;31.10;14.38;;;;;;;;;;5092525;28;20063;-69
2021/12/25 14:13:56;;;;;;;22.00;12.52;;;;;;;;;;5092771;28;20032;-68
2021/12/25 14:16:23;;;;;;;44.63;22.08;;;;;;;;;;5091513;28;20020;-70
2021/12/25 14:18:49;;;;;;;31.90;20.00;;;;;;;;;;5092694;28;20027;-70
2021/12/25 14:21:22;;;;;;;29.17;19.25;;;;;;;;;;5092503;28;20028;-72
2021/12/25 14:24:00;;;;;;;91.45;40.78;;;;;;;;;;5091334;28;20036;-67
2021/12/25 14:26:26;;;;;;;130.25;44.25;;;;;;;;;;5092183;28;20078;-66
2021/12/25 14:28:52;;;;;;;100.68;42.55;;;;;;;;;;5074201;28;20032;-68
2021/12/25 14:31:18;;;;;;;116.78;63.97;;;;;;;;;;5092639;28;20035;-71
2021/12/25 14:33:53;;;;;;;131.40;78.18;;;;;;;;;;5092309;28;20024;-72
2021/12/25 14:36:20;;;;;;;128.55;75.93;;;;;;;;;;5092564;28;20071;-72
2021/12/25 14:38:48;;;;;;;146.25;93.55;;;;;;;;;;5091979;28;20024;-63
2021/12/25 14:41:15;;;;;;;117.60;65.53;;;;;;;;;;5091915;28;20019;-70